sensor_id;sensor_type;location;lat;lon;timestamp;pressure;altitude;pressure_sealevel;temperature;humidity
26775;BME280;14362;51.902;7.626;2023-03-11T00:00:32;99845.69;;;0.80;100.00
26775;BME280;14362;51.902;7.626;2023-03-11T00:04:34;99858.28;;;0.81;100.00
26775;BME280;14362;51.902;7.626;2023-03-11T00:08:36;99848.47;;;0.75;100.00
26775;BME280;14362;51.902;7.626;2023-03-11T00:12:38;99859.47;;;0.70;100.00
26775;BME280;14362;51.902;7.626;2023-03-11T00:16:39;99863.31;;;0.69;100.00
26775;BME280;14362;51.902;7.626;2023-03-11T00:20:42;99881.63;;;0.78;100.00
26775;BME280;14362;51.902;7.626;2023-03-11T00:24:45;99878.34;;;0.76;100.00
26775;BME280;14362;51.902;7.626;2023-03-11T00:28:47;99884.38;;;0.78;100.00
26775;BME280;14362;51.902;7.626;2023-03-11T00:32:48;99898.66;;;0.70;100.00
26775;BME280;14362;51.902;7.626;2023-03-11T00:36:50;99904.44;;;0.69;100.00
26775;BME280;14362;51.902;7.626;2023-03-11T00:40:53;99906.38;;;0.63;100.00
26775;BME280;14362;51.902;7.626;2023-03-11T00:44:54;99907.94;;;0.79;100.00
26775;BME280;14362;51.902;7.626;2023-03-11T00:48:56;99916.47;;;0.73;100.00
26775;BME280;14362;51.902;7.626;2023-03-11T00:52:57;99926.88;;;0.76;100.00
26775;BME280;14362;51.902;7.626;2023-03-11T00:57:00;99931.00;;;0.68;100.00
26775;BME280;14362;51.902;7.626;2023-03-11T01:01:06;99932.09;;;0.72;100.00
26775;BME280;14362;51.902;7.626;2023-03-11T01:05:08;99935.38;;;0.74;100.00
26775;BME280;14362;51.902;7.626;2023-03-11T01:09:10;99934.31;;;0.70;100.00
26775;BME280;14362;51.902;7.626;2023-03-11T01:13:13;99945.50;;;0.79;100.00
26775;BME280;14362;51.902;7.626;2023-03-11T01:17:14;99949.09;;;0.79;100.00
26775;BME280;14362;51.902;7.626;2023-03-11T01:21:16;99952.94;;;0.78;100.00
26775;BME280;14362;51.902;7.626;2023-03-11T01:25:20;99954.03;;;0.77;100.00
26775;BME280;14362;51.902;7.626;2023-03-11T01:29:23;99962.53;;;0.76;100.00
26775;BME280;14362;51.902;7.626;2023-03-11T01:33:25;99961.41;;;0.77;100.00
26775;BME280;14362;51.902;7.626;2023-03-11T01:37:28;99987.47;;;0.84;100.00
26775;BME280;14362;51.902;7.626;2023-03-11T01:41:29;99981.69;;;0.86;100.00
26775;BME280;14362;51.902;7.626;2023-03-11T01:46:01;100001.16;;;0.89;100.00
26775;BME280;14362;51.902;7.626;2023-03-11T01:50:04;99998.69;;;0.88;100.00
26775;BME280;14362;51.902;7.626;2023-03-11T01:54:09;99995.72;;;0.84;100.00
26775;BME280;14362;51.902;7.626;2023-03-11T01:58:15;99994.31;;;0.92;100.00
26775;BME280;14362;51.902;7.626;2023-03-11T02:02:22;99998.69;;;0.88;100.00
26775;BME280;14362;51.902;7.626;2023-03-11T02:06:24;99995.97;;;0.83;100.00
26775;BME280;14362;51.902;7.626;2023-03-11T02:10:26;100000.91;;;0.91;100.00
26775;BME280;14362;51.902;7.626;2023-03-11T02:14:28;100014.06;;;0.89;100.00
26775;BME280;14362;51.902;7.626;2023-03-11T02:18:32;100025.34;;;0.82;100.00
26775;BME280;14362;51.902;7.626;2023-03-11T02:22:34;100018.50;;;0.70;100.00
26775;BME280;14362;51.902;7.626;2023-03-11T02:26:40;100020.66;;;0.78;100.00
26775;BME280;14362;51.902;7.626;2023-03-11T02:30:44;100015.75;;;0.70;100.00
26775;BME280;14362;51.902;7.626;2023-03-11T02:34:47;100019.84;;;0.77;100.00
26775;BME280;14362;51.902;7.626;2023-03-11T02:38:48;100018.75;;;0.78;100.00
26775;BME280;14362;51.902;7.626;2023-03-11T02:42:51;100015.16;;;0.78;100.00
26775;BME280;14362;51.902;7.626;2023-03-11T02:46:56;100012.72;;;0.81;100.00
26775;BME280;14362;51.902;7.626;2023-03-11T02:50:57;100017.38;;;0.81;100.00
26775;BME280;14362;51.902;7.626;2023-03-11T02:55:00;100027.81;;;0.74;100.00
26775;BME280;14362;51.902;7.626;2023-03-11T02:59:01;100028.06;;;0.77;100.00
26775;BME280;14362;51.902;7.626;2023-03-11T03:03:04;100036.31;;;0.77;100.00
26775;BME280;14362;51.902;7.626;2023-03-11T03:07:06;100030.81;;;0.67;100.00
26775;BME280;14362;51.902;7.626;2023-03-11T03:11:07;100038.50;;;0.70;100.00
26775;BME280;14362;51.902;7.626;2023-03-11T03:15:10;100042.38;;;0.64;100.00
26775;BME280;14362;51.902;7.626;2023-03-11T03:19:13;100048.13;;;0.58;100.00
26775;BME280;14362;51.902;7.626;2023-03-11T03:23:14;100053.34;;;0.59;100.00
26775;BME280;14362;51.902;7.626;2023-03-11T03:27:15;100065.13;;;0.60;100.00
26775;BME280;14362;51.902;7.626;2023-03-11T03:31:17;100068.94;;;0.59;100.00
26775;BME280;14362;51.902;7.626;2023-03-11T03:35:20;100067.03;;;0.54;100.00
26775;BME280;14362;51.902;7.626;2023-03-11T03:39:21;100081.00;;;0.58;100.00
26775;BME280;14362;51.902;7.626;2023-03-11T03:43:23;100087.63;;;0.52;100.00
26775;BME280;14362;51.902;7.626;2023-03-11T03:47:24;100090.63;;;0.50;100.00
26775;BME280;14362;51.902;7.626;2023-03-11T03:51:27;100093.66;;;0.54;100.00
26775;BME280;14362;51.902;7.626;2023-03-11T03:55:29;100104.59;;;0.44;100.00
26775;BME280;14362;51.902;7.626;2023-03-11T03:59:30;100105.69;;;0.43;100.00
26775;BME280;14362;51.902;7.626;2023-03-11T04:03:32;100110.09;;;0.44;100.00
26775;BME280;14362;51.902;7.626;2023-03-11T04:07:35;100112.84;;;0.49;100.00
26775;BME280;14362;51.902;7.626;2023-03-11T04:11:37;100115.81;;;0.47;100.00
26775;BME280;14362;51.902;7.626;2023-03-11T04:15:38;100124.34;;;0.56;100.00
26775;BME280;14362;51.902;7.626;2023-03-11T04:19:40;100124.91;;;0.53;100.00
26775;BME280;14362;51.902;7.626;2023-03-11T04:23:43;100125.44;;;0.45;100.00
26775;BME280;14362;51.902;7.626;2023-03-11T04:27:44;100127.63;;;0.48;100.00
26775;BME280;14362;51.902;7.626;2023-03-11T04:31:49;100147.09;;;0.51;100.00
26775;BME280;14362;51.902;7.626;2023-03-11T04:35:50;100144.09;;;0.48;100.00
26775;BME280;14362;51.902;7.626;2023-03-11T04:39:53;100150.38;;;0.48;100.00
26775;BME280;14362;51.902;7.626;2023-03-11T04:43:54;100153.13;;;0.43;100.00
26775;BME280;14362;51.902;7.626;2023-03-11T04:47:56;100155.03;;;0.43;100.00
26775;BME280;14362;51.902;7.626;2023-03-11T04:51:57;100159.16;;;0.50;100.00
26775;BME280;14362;51.902;7.626;2023-03-11T04:56:00;100163.28;;;0.53;100.00
26775;BME280;14362;51.902;7.626;2023-03-11T05:00:03;100167.66;;;0.49;100.00
26775;BME280;14362;51.902;7.626;2023-03-11T05:04:08;100177.25;;;0.46;100.00
26775;BME280;14362;51.902;7.626;2023-03-11T05:08:11;100182.47;;;0.53;100.00
26775;BME280;14362;51.902;7.626;2023-03-11T05:12:14;100195.31;;;0.47;100.00
26775;BME280;14362;51.902;7.626;2023-03-11T05:16:15;100185.47;;;0.51;100.00
26775;BME280;14362;51.902;7.626;2023-03-11T05:20:17;100198.09;;;0.42;100.00
26775;BME280;14362;51.902;7.626;2023-03-11T05:24:18;100203.00;;;0.40;100.00
26775;BME280;14362;51.902;7.626;2023-03-11T05:28:21;100201.09;;;0.46;100.00
26775;BME280;14362;51.902;7.626;2023-03-11T05:32:23;100211.78;;;0.47;100.00
26775;BME280;14362;51.902;7.626;2023-03-11T05:36:24;100207.94;;;0.38;100.00
26775;BME280;14362;51.902;7.626;2023-03-11T05:40:26;100219.47;;;0.40;100.00
26775;BME280;14362;51.902;7.626;2023-03-11T05:44:29;100220.00;;;0.37;100.00
26775;BME280;14362;51.902;7.626;2023-03-11T05:48:30;100216.97;;;0.29;100.00
26775;BME280;14362;51.902;7.626;2023-03-11T05:52:32;100228.72;;;0.29;100.00
26775;BME280;14362;51.902;7.626;2023-03-11T05:56:33;100233.13;;;0.25;100.00
26775;BME280;14362;51.902;7.626;2023-03-11T06:00:36;100245.41;;;0.13;100.00
26775;BME280;14362;51.902;7.626;2023-03-11T06:04:38;100244.88;;;0.16;100.00
26775;BME280;14362;51.902;7.626;2023-03-11T06:08:39;100253.06;;;0.11;100.00
26775;BME280;14362;51.902;7.626;2023-03-11T06:12:45;100258.56;;;0.11;100.00
26775;BME280;14362;51.902;7.626;2023-03-11T06:16:47;100253.31;;;0.04;100.00
26775;BME280;14362;51.902;7.626;2023-03-11T06:20:49;100252.22;;;0.05;100.00
26775;BME280;14362;51.902;7.626;2023-03-11T06:24:50;100254.13;;;0.00;100.00
26775;BME280;14362;51.902;7.626;2023-03-11T06:28:52;100256.59;;;0.01;100.00
26775;BME280;14362;51.902;7.626;2023-03-11T06:32:54;100270.00;;;0.03;100.00
26775;BME280;14362;51.902;7.626;2023-03-11T06:36:56;100279.31;;;0.02;100.00
26775;BME280;14362;51.902;7.626;2023-03-11T06:40:59;100287.84;;;0.10;100.00
26775;BME280;14362;51.902;7.626;2023-03-11T06:45:01;100298.81;;;0.05;100.00
26775;BME280;14362;51.902;7.626;2023-03-11T06:49:04;100288.69;;;0.11;100.00
26775;BME280;14362;51.902;7.626;2023-03-11T06:53:05;100294.41;;;0.04;100.00
26775;BME280;14362;51.902;7.626;2023-03-11T06:57:07;100309.50;;;0.12;100.00
26775;BME280;14362;51.902;7.626;2023-03-11T07:01:11;100308.72;;;0.16;100.00
26775;BME280;14362;51.902;7.626;2023-03-11T07:05:14;100306.25;;;0.15;100.00
26775;BME280;14362;51.902;7.626;2023-03-11T07:09:15;100320.25;;;0.28;100.00
26775;BME280;14362;51.902;7.626;2023-03-11T07:13:17;100327.66;;;0.28;100.00
26775;BME280;14362;51.902;7.626;2023-03-11T07:17:18;100335.91;;;0.33;100.00
26775;BME280;14362;51.902;7.626;2023-03-11T07:21:22;100342.00;;;0.45;100.00
26775;BME280;14362;51.902;7.626;2023-03-11T07:25:23;100349.16;;;0.51;100.00
26775;BME280;14362;51.902;7.626;2023-03-11T07:29:25;100357.72;;;0.64;100.00
26775;BME280;14362;51.902;7.626;2023-03-11T07:33:26;100364.06;;;0.75;100.00
26775;BME280;14362;51.902;7.626;2023-03-11T07:37:29;100366.53;;;0.81;100.00
26775;BME280;14362;51.902;7.626;2023-03-11T07:41:32;100375.06;;;0.90;100.00
26775;BME280;14362;51.902;7.626;2023-03-11T07:45:33;100377.28;;;0.93;100.00
26775;BME280;14362;51.902;7.626;2023-03-11T07:49:35;100386.34;;;1.03;100.00
26775;BME280;14362;51.902;7.626;2023-03-11T07:53:37;100385.53;;;1.07;100.00
26775;BME280;14362;51.902;7.626;2023-03-11T07:57:39;100401.16;;;1.02;100.00
26775;BME280;14362;51.902;7.626;2023-03-11T08:01:41;100395.41;;;1.03;100.00
26775;BME280;14362;51.902;7.626;2023-03-11T08:05:46;100397.34;;;1.23;100.00
26775;BME280;14362;51.902;7.626;2023-03-11T08:09:49;100403.97;;;1.22;100.00
26775;BME280;14362;51.902;7.626;2023-03-11T08:13:50;100405.88;;;1.21;100.00
26775;BME280;14362;51.902;7.626;2023-03-11T08:17:52;100409.97;;;1.24;100.00
26775;BME280;14362;51.902;7.626;2023-03-11T08:21:54;100418.50;;;1.32;100.00
26775;BME280;14362;51.902;7.626;2023-03-11T08:25:57;100419.06;;;1.39;100.00
26775;BME280;14362;51.902;7.626;2023-03-11T08:29:58;100428.16;;;1.40;100.00
26775;BME280;14362;51.902;7.626;2023-03-11T08:34:02;100435.81;;;1.43;100.00
26775;BME280;14362;51.902;7.626;2023-03-11T08:38:03;100424.84;;;1.48;100.00
26775;BME280;14362;51.902;7.626;2023-03-11T08:42:06;100433.66;;;1.55;100.00
26775;BME280;14362;51.902;7.626;2023-03-11T08:46:13;100435.84;;;1.68;100.00
26775;BME280;14362;51.902;7.626;2023-03-11T08:50:17;100430.91;;;1.70;100.00
26775;BME280;14362;51.902;7.626;2023-03-11T08:54:19;100434.47;;;1.70;100.00
26775;BME280;14362;51.902;7.626;2023-03-11T08:58:21;100441.38;;;1.78;100.00
26775;BME280;14362;51.902;7.626;2023-03-11T09:02:23;100445.75;;;1.89;100.00
26775;BME280;14362;51.902;7.626;2023-03-11T09:06:24;100433.13;;;1.93;100.00
26775;BME280;14362;51.902;7.626;2023-03-11T09:10:26;100438.91;;;2.06;100.00
26775;BME280;14362;51.902;7.626;2023-03-11T09:14:29;100433.41;;;2.06;100.00
26775;BME280;14362;51.902;7.626;2023-03-11T09:18:30;100440.25;;;2.13;100.00
26775;BME280;14362;51.902;7.626;2023-03-11T09:22:31;100442.47;;;2.16;100.00
26775;BME280;14362;51.902;7.626;2023-03-11T09:26:33;100441.06;;;2.24;100.00
26775;BME280;14362;51.902;7.626;2023-03-11T09:30:37;100446.28;;;2.30;100.00
26775;BME280;14362;51.902;7.626;2023-03-11T09:34:38;100446.00;;;2.37;100.00
26775;BME280;14362;51.902;7.626;2023-03-11T09:38:40;100438.28;;;2.29;100.00
26775;BME280;14362;51.902;7.626;2023-03-11T09:42:48;100444.84;;;2.58;100.00
26775;BME280;14362;51.902;7.626;2023-03-11T09:47:14;100439.59;;;2.56;100.00
26775;BME280;14362;51.902;7.626;2023-03-11T09:51:24;100444.78;;;2.78;100.00
26775;BME280;14362;51.902;7.626;2023-03-11T09:55:34;100455.69;;;3.02;100.00
26775;BME280;14362;51.902;7.626;2023-03-11T09:59:39;100454.63;;;2.89;100.00
26775;BME280;14362;51.902;7.626;2023-03-11T10:03:44;100472.25;;;2.88;100.00
26775;BME280;14362;51.902;7.626;2023-03-11T10:07:52;100467.28;;;3.00;100.00
26775;BME280;14362;51.902;7.626;2023-03-11T10:12:05;100473.59;;;3.00;100.00
26775;BME280;14362;51.902;7.626;2023-03-11T10:16:15;100468.63;;;3.07;100.00
26775;BME280;14362;51.902;7.626;2023-03-11T10:20:21;100478.78;;;3.16;100.00
26775;BME280;14362;51.902;7.626;2023-03-11T10:24:39;100477.09;;;3.20;100.00
26775;BME280;14362;51.902;7.626;2023-03-11T10:28:48;100477.34;;;3.24;100.00
26775;BME280;14362;51.902;7.626;2023-03-11T10:32:54;100486.47;;;3.19;100.00
26775;BME280;14362;51.902;7.626;2023-03-11T10:37:01;100476.59;;;3.08;100.00
26775;BME280;14362;51.902;7.626;2023-03-11T10:41:12;100491.69;;;3.16;100.00
26775;BME280;14362;51.902;7.626;2023-03-11T10:45:15;100490.78;;;3.35;100.00
26775;BME280;14362;51.902;7.626;2023-03-11T10:49:17;100494.50;;;3.59;100.00
26775;BME280;14362;51.902;7.626;2023-03-11T10:53:20;100497.25;;;3.59;100.00
26775;BME280;14362;51.902;7.626;2023-03-11T10:57:23;100488.38;;;3.72;100.00
26775;BME280;14362;51.902;7.626;2023-03-11T11:01:26;100492.00;;;3.63;100.00
26775;BME280;14362;51.902;7.626;2023-03-11T11:05:30;100497.63;;;3.86;100.00
26775;BME280;14362;51.902;7.626;2023-03-11T11:09:34;100493.75;;;3.92;100.00
26775;BME280;14362;51.902;7.626;2023-03-11T11:13:35;100498.09;;;3.98;100.00
26775;BME280;14362;51.902;7.626;2023-03-11T11:17:37;100491.06;;;4.15;100.00
26775;BME280;14362;51.902;7.626;2023-03-11T11:21:41;100489.03;;;4.31;100.00
26775;BME280;14362;51.902;7.626;2023-03-11T11:25:56;100491.25;;;4.29;100.00
26775;BME280;14362;51.902;7.626;2023-03-11T11:30:12;100490.16;;;4.25;100.00
26775;BME280;14362;51.902;7.626;2023-03-11T11:34:29;100489.44;;;4.43;100.00
26775;BME280;14362;51.902;7.626;2023-03-11T11:38:32;100487.75;;;4.47;100.00
26775;BME280;14362;51.902;7.626;2023-03-11T11:42:36;100479.47;;;4.47;100.00
26775;BME280;14362;51.902;7.626;2023-03-11T11:46:40;100481.59;;;4.55;100.00
26775;BME280;14362;51.902;7.626;2023-03-11T11:50:46;100480.94;;;4.68;100.00
26775;BME280;14362;51.902;7.626;2023-03-11T11:54:49;100474.22;;;4.74;100.00
26775;BME280;14362;51.902;7.626;2023-03-11T11:58:53;100481.47;;;4.70;100.00
26775;BME280;14362;51.902;7.626;2023-03-11T12:03:06;100470.13;;;4.71;100.00
26775;BME280;14362;51.902;7.626;2023-03-11T12:07:21;100465.53;;;4.85;100.00
26775;BME280;14362;51.902;7.626;2023-03-11T12:11:28;100472.34;;;4.93;100.00
26775;BME280;14362;51.902;7.626;2023-03-11T12:15:38;100474.31;;;4.92;100.00
26775;BME280;14362;51.902;7.626;2023-03-11T12:19:45;100482.22;;;4.99;100.00
26775;BME280;14362;51.902;7.626;2023-03-11T12:24:00;100468.75;;;5.15;100.00
26775;BME280;14362;51.902;7.626;2023-03-11T12:28:14;100476.94;;;5.25;100.00
26775;BME280;14362;51.902;7.626;2023-03-11T12:32:23;100475.72;;;5.13;97.78
26775;BME280;14362;51.902;7.626;2023-03-11T12:36:29;100472.44;;;5.29;100.00
26775;BME280;14362;51.902;7.626;2023-03-11T12:40:45;100477.91;;;5.34;92.76
26775;BME280;14362;51.902;7.626;2023-03-11T12:44:48;100485.03;;;5.40;81.69
26775;BME280;14362;51.902;7.626;2023-03-11T12:49:08;100501.00;;;5.43;90.18
26775;BME280;14362;51.902;7.626;2023-03-11T12:53:15;100501.00;;;5.43;86.44
26775;BME280;14362;51.902;7.626;2023-03-11T12:57:30;100500.44;;;5.46;83.83
26775;BME280;14362;51.902;7.626;2023-03-11T13:01:46;100504.44;;;5.35;96.26
26775;BME280;14362;51.902;7.626;2023-03-11T13:05:58;100502.88;;;5.48;91.79
26775;BME280;14362;51.902;7.626;2023-03-11T13:10:10;100515.09;;;5.65;94.84
26775;BME280;14362;51.902;7.626;2023-03-11T13:14:33;100508.00;;;5.78;99.62
26775;BME280;14362;51.902;7.626;2023-03-11T13:18:34;100495.00;;;5.97;98.21
26775;BME280;14362;51.902;7.626;2023-03-11T13:23:07;100503.44;;;6.05;87.59
26775;BME280;14362;51.902;7.626;2023-03-11T13:27:14;100507.19;;;6.14;100.00
26775;BME280;14362;51.902;7.626;2023-03-11T13:31:35;100502.72;;;6.18;100.00
26775;BME280;14362;51.902;7.626;2023-03-11T13:35:53;100499.94;;;6.18;91.84
26775;BME280;14362;51.902;7.626;2023-03-11T13:40:06;100496.97;;;6.46;84.69
26775;BME280;14362;51.902;7.626;2023-03-11T13:44:21;100497.25;;;6.45;80.67
26775;BME280;14362;51.902;7.626;2023-03-11T13:48:27;100499.94;;;6.50;84.36
26775;BME280;14362;51.902;7.626;2023-03-11T13:52:31;100494.38;;;6.68;86.19
26775;BME280;14362;51.902;7.626;2023-03-11T13:56:42;100499.38;;;6.66;69.39
26775;BME280;14362;51.902;7.626;2023-03-11T14:00:47;100495.72;;;6.84;81.46
26775;BME280;14362;51.902;7.626;2023-03-11T14:04:52;100492.03;;;7.02;86.65
26775;BME280;14362;51.902;7.626;2023-03-11T14:08:55;100498.91;;;6.78;67.34
26775;BME280;14362;51.902;7.626;2023-03-11T14:13:14;100497.03;;;6.87;76.33
26775;BME280;14362;51.902;7.626;2023-03-11T14:17:18;100496.97;;;6.92;77.75
26775;BME280;14362;51.902;7.626;2023-03-11T14:21:21;100510.66;;;6.70;63.88
26775;BME280;14362;51.902;7.626;2023-03-11T14:25:24;100505.34;;;6.87;63.08
26775;BME280;14362;51.902;7.626;2023-03-11T14:29:30;100501.97;;;6.90;61.97
26775;BME280;14362;51.902;7.626;2023-03-11T14:33:32;100511.16;;;6.58;61.43
26775;BME280;14362;51.902;7.626;2023-03-11T14:37:35;100517.41;;;6.64;65.47
26775;BME280;14362;51.902;7.626;2023-03-11T14:41:38;100521.78;;;6.83;70.85
26775;BME280;14362;51.902;7.626;2023-03-11T14:45:42;100516.06;;;7.07;71.97
26775;BME280;14362;51.902;7.626;2023-03-11T14:49:45;100512.78;;;7.18;67.91
26775;BME280;14362;51.902;7.626;2023-03-11T14:53:53;100512.16;;;7.21;69.04
26775;BME280;14362;51.902;7.626;2023-03-11T14:58:02;100510.31;;;7.30;70.01
26775;BME280;14362;51.902;7.626;2023-03-11T15:02:25;100511.25;;;7.39;61.68
26775;BME280;14362;51.902;7.626;2023-03-11T15:06:29;100525.81;;;7.44;62.94
26775;BME280;14362;51.902;7.626;2023-03-11T15:10:32;100520.19;;;7.49;62.02
26775;BME280;14362;51.902;7.626;2023-03-11T15:14:47;100524.88;;;7.49;61.30
26775;BME280;14362;51.902;7.626;2023-03-11T15:18:51;100522.75;;;7.32;62.82
26775;BME280;14362;51.902;7.626;2023-03-11T15:22:54;100528.47;;;7.22;59.43
26775;BME280;14362;51.902;7.626;2023-03-11T15:27:03;100531.66;;;7.03;54.86
26775;BME280;14362;51.902;7.626;2023-03-11T15:31:28;100530.84;;;7.02;54.21
26775;BME280;14362;51.902;7.626;2023-03-11T15:35:44;100527.75;;;7.04;57.69
26775;BME280;14362;51.902;7.626;2023-03-11T15:39:48;100525.28;;;6.89;63.96
26775;BME280;14362;51.902;7.626;2023-03-11T15:43:51;100530.44;;;6.63;63.15
26775;BME280;14362;51.902;7.626;2023-03-11T15:47:53;100529.47;;;6.41;63.96
26775;BME280;14362;51.902;7.626;2023-03-11T15:51:58;100534.78;;;6.19;67.67
26775;BME280;14362;51.902;7.626;2023-03-11T15:56:01;100535.31;;;6.03;72.86
26775;BME280;14362;51.902;7.626;2023-03-11T16:00:06;100534.53;;;5.79;65.23
26775;BME280;14362;51.902;7.626;2023-03-11T16:04:12;100541.59;;;5.66;63.04
26775;BME280;14362;51.902;7.626;2023-03-11T16:08:16;100534.25;;;5.57;68.18
26775;BME280;14362;51.902;7.626;2023-03-11T16:12:19;100530.88;;;5.41;80.60
26775;BME280;14362;51.902;7.626;2023-03-11T16:16:20;100537.59;;;5.35;74.19
26775;BME280;14362;51.902;7.626;2023-03-11T16:20:23;100535.78;;;5.26;74.22
26775;BME280;14362;51.902;7.626;2023-03-11T16:24:26;100532.88;;;5.12;74.50
26775;BME280;14362;51.902;7.626;2023-03-11T16:28:28;100539.28;;;5.08;76.83
26775;BME280;14362;51.902;7.626;2023-03-11T16:32:29;100534.06;;;5.06;74.04
26775;BME280;14362;51.902;7.626;2023-03-11T16:36:31;100527.25;;;4.99;72.83
26775;BME280;14362;51.902;7.626;2023-03-11T16:40:33;100535.59;;;4.94;86.11
26775;BME280;14362;51.902;7.626;2023-03-11T16:44:35;100531.28;;;4.83;96.67
26775;BME280;14362;51.902;7.626;2023-03-11T16:48:36;100544.88;;;4.75;96.73
26775;BME280;14362;51.902;7.626;2023-03-11T16:52:38;100540.00;;;4.67;100.00
26775;BME280;14362;51.902;7.626;2023-03-11T16:56:41;100548.09;;;4.58;100.00
26775;BME280;14362;51.902;7.626;2023-03-11T17:00:42;100550.34;;;4.51;100.00
26775;BME280;14362;51.902;7.626;2023-03-11T17:04:44;100548.50;;;4.42;100.00
26775;BME280;14362;51.902;7.626;2023-03-11T17:08:47;100557.13;;;4.35;100.00
26775;BME280;14362;51.902;7.626;2023-03-11T17:12:50;100553.03;;;4.28;100.00
26775;BME280;14362;51.902;7.626;2023-03-11T17:16:52;100550.94;;;4.15;100.00
26775;BME280;14362;51.902;7.626;2023-03-11T17:20:53;100553.75;;;4.05;100.00
26775;BME280;14362;51.902;7.626;2023-03-11T17:24:54;100565.44;;;3.92;100.00
26775;BME280;14362;51.902;7.626;2023-03-11T17:28:58;100559.41;;;3.80;100.00
26775;BME280;14362;51.902;7.626;2023-03-11T17:32:59;100572.19;;;3.66;100.00
26775;BME280;14362;51.902;7.626;2023-03-11T17:37:01;100573.34;;;3.55;100.00
26775;BME280;14362;51.902;7.626;2023-03-11T17:41:06;100572.00;;;3.43;100.00
26775;BME280;14362;51.902;7.626;2023-03-11T17:45:10;100583.34;;;3.36;100.00
26775;BME280;14362;51.902;7.626;2023-03-11T17:49:13;100591.38;;;3.23;100.00
26775;BME280;14362;51.902;7.626;2023-03-11T17:53:14;100588.63;;;3.13;100.00
26775;BME280;14362;51.902;7.626;2023-03-11T17:57:16;100600.47;;;3.03;100.00
26775;BME280;14362;51.902;7.626;2023-03-11T18:01:21;100595.00;;;2.94;100.00
26775;BME280;14362;51.902;7.626;2023-03-11T18:05:22;100599.72;;;2.83;100.00
26775;BME280;14362;51.902;7.626;2023-03-11T18:09:24;100604.94;;;2.75;100.00
26775;BME280;14362;51.902;7.626;2023-03-11T18:13:25;100604.94;;;2.65;100.00
26775;BME280;14362;51.902;7.626;2023-03-11T18:17:28;100598.34;;;2.61;100.00
26775;BME280;14362;51.902;7.626;2023-03-11T18:21:30;100607.41;;;2.56;100.00
26775;BME280;14362;51.902;7.626;2023-03-11T18:25:32;100597.78;;;2.49;100.00
26775;BME280;14362;51.902;7.626;2023-03-11T18:29:34;100603.31;;;2.44;100.00
26775;BME280;14362;51.902;7.626;2023-03-11T18:33:37;100607.41;;;2.36;100.00
26775;BME280;14362;51.902;7.626;2023-03-11T18:37:38;100619.78;;;2.29;100.00
26775;BME280;14362;51.902;7.626;2023-03-11T18:41:40;100613.19;;;2.20;100.00
26775;BME280;14362;51.902;7.626;2023-03-11T18:45:42;100617.28;;;2.17;100.00
26775;BME280;14362;51.902;7.626;2023-03-11T18:49:45;100621.13;;;2.06;100.00
26775;BME280;14362;51.902;7.626;2023-03-11T18:53:46;100619.44;;;2.00;100.00
26775;BME280;14362;51.902;7.626;2023-03-11T18:57:48;100624.13;;;1.95;100.00
26775;BME280;14362;51.902;7.626;2023-03-11T19:01:49;100611.44;;;1.89;100.00
26775;BME280;14362;51.902;7.626;2023-03-11T19:05:52;100607.63;;;1.85;100.00
26775;BME280;14362;51.902;7.626;2023-03-11T19:09:53;100613.63;;;1.77;100.00
26775;BME280;14362;51.902;7.626;2023-03-11T19:13:55;100610.84;;;1.72;100.00
26775;BME280;14362;51.902;7.626;2023-03-11T19:17:56;100619.34;;;1.66;100.00
26775;BME280;14362;51.902;7.626;2023-03-11T19:21:59;100617.13;;;1.58;100.00
26775;BME280;14362;51.902;7.626;2023-03-11T19:26:00;100626.97;;;1.49;100.00
26775;BME280;14362;51.902;7.626;2023-03-11T19:30:02;100617.88;;;1.43;100.00
26775;BME280;14362;51.902;7.626;2023-03-11T19:34:04;100631.03;;;1.36;100.00
26775;BME280;14362;51.902;7.626;2023-03-11T19:38:07;100627.72;;;1.29;100.00
26775;BME280;14362;51.902;7.626;2023-03-11T19:42:08;100631.22;;;1.20;100.00
26775;BME280;14362;51.902;7.626;2023-03-11T19:46:11;100629.25;;;1.15;100.00
26775;BME280;14362;51.902;7.626;2023-03-11T19:50:14;100628.16;;;1.11;100.00
26775;BME280;14362;51.902;7.626;2023-03-11T19:54:17;100631.38;;;1.03;100.00
26775;BME280;14362;51.902;7.626;2023-03-11T19:58:18;100634.41;;;1.02;100.00
26775;BME280;14362;51.902;7.626;2023-03-11T20:02:20;100635.72;;;0.95;100.00
26775;BME280;14362;51.902;7.626;2023-03-11T20:06:22;100650.28;;;0.95;100.00
26775;BME280;14362;51.902;7.626;2023-03-11T20:10:24;100641.69;;;0.87;100.00
26775;BME280;14362;51.902;7.626;2023-03-11T20:14:26;100638.66;;;0.83;100.00
26775;BME280;14362;51.902;7.626;2023-03-11T20:18:27;100635.59;;;0.80;100.00
26775;BME280;14362;51.902;7.626;2023-03-11T20:22:29;100638.63;;;0.78;100.00
26775;BME280;14362;51.902;7.626;2023-03-11T20:26:31;100634.75;;;0.74;100.00
26775;BME280;14362;51.902;7.626;2023-03-11T20:30:33;100633.38;;;0.72;100.00
26775;BME280;14362;51.902;7.626;2023-03-11T20:34:35;100639.38;;;0.69;100.00
26775;BME280;14362;51.902;7.626;2023-03-11T20:38:37;100646.81;;;0.73;100.00
26775;BME280;14362;51.902;7.626;2023-03-11T20:42:41;100652.34;;;0.78;100.00
26775;BME280;14362;51.902;7.626;2023-03-11T20:46:45;100644.13;;;0.78;100.00
26775;BME280;14362;51.902;7.626;2023-03-11T20:50:48;100642.19;;;0.79;100.00
26775;BME280;14362;51.902;7.626;2023-03-11T20:54:49;100644.69;;;0.80;100.00
26775;BME280;14362;51.902;7.626;2023-03-11T20:58:53;100649.31;;;0.80;100.00
26775;BME280;14362;51.902;7.626;2023-03-11T21:02:58;100647.72;;;0.84;100.00
26775;BME280;14362;51.902;7.626;2023-03-11T21:06:59;100633.13;;;0.78;100.00
26775;BME280;14362;51.902;7.626;2023-03-11T21:11:01;100646.28;;;0.76;100.00
26775;BME280;14362;51.902;7.626;2023-03-11T21:15:05;100654.78;;;0.75;100.00
26775;BME280;14362;51.902;7.626;2023-03-11T21:19:07;100641.25;;;0.63;100.00